Capo Vado — IPWV — position and weather

sailwx.info

Track history (hours):
 
Tides and Currents Weather Stations Pressure Air Temp Water Temp Dewpoint Dewpoint Depression Visibility Wind Speed Wind Dir Waves Ship Positions

Capo Vado

Last reported at 2015-May-28 23:27 UTC. Time now 2015-May-29 02:18 UTC.
Position N 44°18' E 008°29'.

Length 30 m.

Type: Tug. MMSI: 247228400.

Date/timePositionNaut miles runAvg speedWind from/ knotsBaromVisibWave heightAir tempDewpointWater temp
2015-May-28 23:27N 44°18' E 008°29'0 0.0
2015-May-28 22:33N 44°18' E 008°29'0 0.0
2015-May-28 21:33N 44°18' E 008°29'0 0.0
2015-May-28 19:18N 44°18' E 008°29'0 0.0
2015-May-28 18:33N 44°18' E 008°29'0 0.0
2015-May-28 17:30N 44°18' E 008°29'0 0.0
2015-May-28 16:33N 44°18' E 008°29'0 0.0
2015-May-28 14:15N 44°18' E 008°29'0 0.0
2015-May-28 13:21N 44°18' E 008°29'0 0.0
2015-May-28 12:09N 44°18' E 008°29'0 0.0
2015-May-28 10:15N 44°18' E 008°29'0 0.0
2015-May-28 09:30N 44°18' E 008°29'0 0.0
2015-May-28 06:33N 44°18' E 008°29'0 0.0
2015-May-28 03:30N 44°18' E 008°29'0 0.0
2015-May-28 00:12N 44°18' E 008°29'0 0.0
2015-May-27 23:33N 44°18' E 008°29'0 0.0
2015-May-27 22:33N 44°18' E 008°29'0 0.0
2015-May-27 21:24N 44°18' E 008°29'0 0.0
2015-May-27 20:12N 44°18' E 008°29'0 0.0
2015-May-27 19:27N 44°18' E 008°29'0 0.0
2015-May-27 18:33N 44°18' E 008°29'0 0.0
2015-May-27 17:33N 44°18' E 008°29'0 0.0
2015-May-27 16:33N 44°18' E 008°29'2 0.4
2015-May-27 12:17N 44°17' E 008°28'0 0.2
2015-May-27 11:29N 44°17' E 008°28'2 1.9
2015-May-27 10:33N 44°19' E 008°29'1 0.1
2015-May-27 03:32N 44°18' E 008°29'2 1.2
2015-May-27 02:17N 44°17' E 008°28'3 4.1
2015-May-27 01:32N 44°19' E 008°30'1 0.7
2015-May-27 00:15N 44°18' E 008°29'0 0.0
2015-May-26 23:30N 44°18' E 008°29'0 0.0
2015-May-26 22:18N 44°18' E 008°29'0 0.0
2015-May-26 21:21N 44°18' E 008°29'0 0.0
2015-May-26 15:30N 44°18' E 008°29'0 0.0
2015-May-26 13:21N 44°18' E 008°29'0 0.0
2015-May-26 12:18N 44°18' E 008°29'0 0.0
2015-May-26 11:33N 44°18' E 008°29'0 0.0
2015-May-26 10:33N 44°18' E 008°29'0 0.0
2015-May-26 09:30N 44°18' E 008°29'0 0.0
2015-May-26 08:30N 44°18' E 008°29'1 0.8
2015-May-26 07:31N 44°19' E 008°30'3 1.7
2015-May-26 05:33N 44°16' E 008°28'3 2.5
2015-May-26 04:31N 44°18' E 008°30'0 0.1
2015-May-25 23:05N 44°18' E 008°29'0 0.0
2015-May-25 22:23N 44°18' E 008°29'0 0.0
2015-May-25 21:29N 44°18' E 008°29'0 0.0
2015-May-25 20:29N 44°18' E 008°29'0 0.0
2015-May-25 18:17N 44°18' E 008°29'0 0.0
2015-May-25 17:05N 44°18' E 008°29'0 0.0
2015-May-25 14:23N 44°18' E 008°29'0 0.0
2015-May-25 11:23N 44°18' E 008°29'0 0.1
2015-May-25 10:19N 44°19' E 008°29'1 1.2
2015-May-25 09:33N 44°19' E 008°31'1 0.8
2015-May-25 08:16N 44°18' E 008°29'0 0.0
2015-May-25 06:04N 44°18' E 008°29'0 0.0
2015-May-25 05:31N 44°18' E 008°29'0 0.0
2015-May-25 01:13N 44°18' E 008°29'0 0.0
2015-May-25 00:25N 44°18' E 008°29'0 0.0
2015-May-24 22:28N 44°18' E 008°29'0 0.0
2015-May-24 20:22N 44°18' E 008°29'0 0.0
2015-May-24 19:31N 44°18' E 008°29'0 0.0
2015-May-24 18:25N 44°18' E 008°29'0 0.0
2015-May-24 17:31N 44°18' E 008°29'0 0.0
2015-May-24 16:31N 44°18' E 008°29'0 0.0
2015-May-24 15:31N 44°18' E 008°29'0 0.0
2015-May-24 13:22N 44°18' E 008°29'0 0.0
2015-May-24 10:31N 44°18' E 008°29'0 0.0
2015-May-24 05:04N 44°18' E 008°29'0 0.0
2015-May-23 22:28N 44°18' E 008°29'0 0.0
2015-May-23 21:22N 44°18' E 008°29'0 0.0
2015-May-23 20:16N 44°18' E 008°29'0 0.0
2015-May-23 19:16N 44°18' E 008°29'0 0.0
2015-May-23 15:25N 44°18' E 008°29'0 0.0
2015-May-23 14:19N 44°18' E 008°29'0 0.0
2015-May-23 13:13N 44°18' E 008°29'0 0.0
2015-May-23 12:31N 44°18' E 008°29'0 0.0
2015-May-23 11:25N 44°18' E 008°29'0 0.0
2015-May-23 10:25N 44°18' E 008°29'0 0.0
2015-May-23 09:31N 44°18' E 008°29'0 0.0
2015-May-23 07:13N 44°18' E 008°29'0 0.0
2015-May-23 06:31N 44°18' E 008°29'0 0.0
2015-May-23 05:19N 44°18' E 008°29'0 0.0
2015-May-23 04:31N 44°18' E 008°29'0 0.0
2015-May-23 03:25N 44°18' E 008°29'0 0.0
2015-May-23 02:31N 44°18' E 008°29'0 0.0
2015-May-23 01:31N 44°18' E 008°29'0 0.0
2015-May-23 00:22N 44°18' E 008°29'0 0.0
2015-May-22 22:22N 44°18' E 008°29'0 0.0
2015-May-22 20:28N 44°18' E 008°29'0 0.0
2015-May-22 18:25N 44°18' E 008°29'0 0.0
2015-May-22 17:28N 44°18' E 008°29'0 0.0
2015-May-22 16:04N 44°18' E 008°29'1 1.3
2015-May-22 15:29N 44°19' E 008°30'1 0.5
2015-May-22 14:04N 44°18' E 008°29'2 3.5
2015-May-22 13:29N 44°17' E 008°28'0 0.4
2015-May-22 12:28N 44°17' E 008°28'2 1.7
2015-May-22 11:30N 44°18' E 008°29'0 0.0
2015-May-22 10:15N 44°18' E 008°29'0 0.3
2015-May-22 09:33N 44°19' E 008°29'3 3.0
2015-May-22 08:33N 44°16' E 008°27'0 0.1
2015-May-22 05:13N 44°16' E 008°27'0 0.8
2015-May-22 04:33N 44°16' E 008°28'3 0.3
2015-May-21 19:27N 44°18' E 008°29'0 0.0
2015-May-21 07:06N 44°18' E 008°29'0 0.0
2015-May-20 11:03N 44°18' E 008°29'0 0.0
2015-May-20 10:33N 44°18' E 008°29'0 0.0
2015-May-20 09:24N 44°18' E 008°29'1 0.4
2015-May-20 07:31N 44°19' E 008°30'1 0.0
2015-May-19 15:25N 44°18' E 008°29'0 0.0
2015-May-19 01:10N 44°18' E 008°29'0 0.0
2015-May-19 00:16N 44°18' E 008°29'0 0.0
2015-May-18 23:31N 44°18' E 008°29'  
Track history (hours):
 
Tides and Currents Weather Stations Pressure Air Temp Water Temp Dewpoint Dewpoint Depression Visibility Wind Speed Wind Dir Waves Ship Positions

Capo Vado

Last reported at 2015-May-28 23:27 UTC. Time now 2015-May-29 02:18 UTC.
Position N 44°18' E 008°29'.

Length 30 m.

Type: Tug. MMSI: 247228400.

Date/timePositionNaut miles runAvg speedWind from/ knotsBaromVisibWave heightAir tempDewpointWater temp
2015-May-28 23:27N 44°18' E 008°29'0 0.0
2015-May-28 22:33N 44°18' E 008°29'0 0.0
2015-May-28 21:33N 44°18' E 008°29'0 0.0
2015-May-28 19:18N 44°18' E 008°29'0 0.0
2015-May-28 18:33N 44°18' E 008°29'0 0.0
2015-May-28 17:30N 44°18' E 008°29'0 0.0
2015-May-28 16:33N 44°18' E 008°29'0 0.0
2015-May-28 14:15N 44°18' E 008°29'0 0.0
2015-May-28 13:21N 44°18' E 008°29'0 0.0
2015-May-28 12:09N 44°18' E 008°29'0 0.0
2015-May-28 10:15N 44°18' E 008°29'0 0.0
2015-May-28 09:30N 44°18' E 008°29'0 0.0
2015-May-28 06:33N 44°18' E 008°29'0 0.0
2015-May-28 03:30N 44°18' E 008°29'0 0.0
2015-May-28 00:12N 44°18' E 008°29'0 0.0
2015-May-27 23:33N 44°18' E 008°29'0 0.0
2015-May-27 22:33N 44°18' E 008°29'0 0.0
2015-May-27 21:24N 44°18' E 008°29'0 0.0
2015-May-27 20:12N 44°18' E 008°29'0 0.0
2015-May-27 19:27N 44°18' E 008°29'0 0.0
2015-May-27 18:33N 44°18' E 008°29'0 0.0
2015-May-27 17:33N 44°18' E 008°29'0 0.0
2015-May-27 16:33N 44°18' E 008°29'2 0.4
2015-May-27 12:17N 44°17' E 008°28'0 0.2
2015-May-27 11:29N 44°17' E 008°28'2 1.9
2015-May-27 10:33N 44°19' E 008°29'1 0.1
2015-May-27 03:32N 44°18' E 008°29'2 1.2
2015-May-27 02:17N 44°17' E 008°28'3 4.1
2015-May-27 01:32N 44°19' E 008°30'1 0.7
2015-May-27 00:15N 44°18' E 008°29'0 0.0
2015-May-26 23:30N 44°18' E 008°29'0 0.0
2015-May-26 22:18N 44°18' E 008°29'0 0.0
2015-May-26 21:21N 44°18' E 008°29'0 0.0
2015-May-26 15:30N 44°18' E 008°29'0 0.0
2015-May-26 13:21N 44°18' E 008°29'0 0.0
2015-May-26 12:18N 44°18' E 008°29'0 0.0
2015-May-26 11:33N 44°18' E 008°29'0 0.0
2015-May-26 10:33N 44°18' E 008°29'0 0.0
2015-May-26 09:30N 44°18' E 008°29'0 0.0
2015-May-26 08:30N 44°18' E 008°29'1 0.8
2015-May-26 07:31N 44°19' E 008°30'3 1.7
2015-May-26 05:33N 44°16' E 008°28'3 2.5
2015-May-26 04:31N 44°18' E 008°30'0 0.1
2015-May-25 23:05N 44°18' E 008°29'0 0.0
2015-May-25 22:23N 44°18' E 008°29'0 0.0
2015-May-25 21:29N 44°18' E 008°29'0 0.0
2015-May-25 20:29N 44°18' E 008°29'0 0.0
2015-May-25 18:17N 44°18' E 008°29'0 0.0
2015-May-25 17:05N 44°18' E 008°29'0 0.0
2015-May-25 14:23N 44°18' E 008°29'0 0.0
2015-May-25 11:23N 44°18' E 008°29'0 0.1
2015-May-25 10:19N 44°19' E 008°29'1 1.2
2015-May-25 09:33N 44°19' E 008°31'1 0.8
2015-May-25 08:16N 44°18' E 008°29'0 0.0
2015-May-25 06:04N 44°18' E 008°29'0 0.0
2015-May-25 05:31N 44°18' E 008°29'0 0.0
2015-May-25 01:13N 44°18' E 008°29'0 0.0
2015-May-25 00:25N 44°18' E 008°29'0 0.0
2015-May-24 22:28N 44°18' E 008°29'0 0.0
2015-May-24 20:22N 44°18' E 008°29'0 0.0
2015-May-24 19:31N 44°18' E 008°29'0 0.0
2015-May-24 18:25N 44°18' E 008°29'0 0.0
2015-May-24 17:31N 44°18' E 008°29'0 0.0
2015-May-24 16:31N 44°18' E 008°29'0 0.0
2015-May-24 15:31N 44°18' E 008°29'0 0.0
2015-May-24 13:22N 44°18' E 008°29'0 0.0
2015-May-24 10:31N 44°18' E 008°29'0 0.0
2015-May-24 05:04N 44°18' E 008°29'0 0.0
2015-May-23 22:28N 44°18' E 008°29'0 0.0
2015-May-23 21:22N 44°18' E 008°29'0 0.0
2015-May-23 20:16N 44°18' E 008°29'0 0.0
2015-May-23 19:16N 44°18' E 008°29'0 0.0
2015-May-23 15:25N 44°18' E 008°29'0 0.0
2015-May-23 14:19N 44°18' E 008°29'0 0.0
2015-May-23 13:13N 44°18' E 008°29'0 0.0
2015-May-23 12:31N 44°18' E 008°29'0 0.0
2015-May-23 11:25N 44°18' E 008°29'0 0.0
2015-May-23 10:25N 44°18' E 008°29'0 0.0
2015-May-23 09:31N 44°18' E 008°29'0 0.0
2015-May-23 07:13N 44°18' E 008°29'0 0.0
2015-May-23 06:31N 44°18' E 008°29'0 0.0
2015-May-23 05:19N 44°18' E 008°29'0 0.0
2015-May-23 04:31N 44°18' E 008°29'0 0.0
2015-May-23 03:25N 44°18' E 008°29'0 0.0
2015-May-23 02:31N 44°18' E 008°29'0 0.0
2015-May-23 01:31N 44°18' E 008°29'0 0.0
2015-May-23 00:22N 44°18' E 008°29'0 0.0
2015-May-22 22:22N 44°18' E 008°29'0 0.0
2015-May-22 20:28N 44°18' E 008°29'0 0.0
2015-May-22 18:25N 44°18' E 008°29'0 0.0
2015-May-22 17:28N 44°18' E 008°29'0 0.0
2015-May-22 16:04N 44°18' E 008°29'1 1.3
2015-May-22 15:29N 44°19' E 008°30'1 0.5
2015-May-22 14:04N 44°18' E 008°29'2 3.5
2015-May-22 13:29N 44°17' E 008°28'0 0.4
2015-May-22 12:28N 44°17' E 008°28'2 1.7
2015-May-22 11:30N 44°18' E 008°29'0 0.0
2015-May-22 10:15N 44°18' E 008°29'0 0.3
2015-May-22 09:33N 44°19' E 008°29'3 3.0
2015-May-22 08:33N 44°16' E 008°27'0 0.1
2015-May-22 05:13N 44°16' E 008°27'0 0.8
2015-May-22 04:33N 44°16' E 008°28'3 0.3
2015-May-21 19:27N 44°18' E 008°29'0 0.0
2015-May-21 07:06N 44°18' E 008°29'0 0.0
2015-May-20 11:03N 44°18' E 008°29'0 0.0
2015-May-20 10:33N 44°18' E 008°29'0 0.0
2015-May-20 09:24N 44°18' E 008°29'1 0.4
2015-May-20 07:31N 44°19' E 008°30'1 0.0
2015-May-19 15:25N 44°18' E 008°29'0 0.0
2015-May-19 01:10N 44°18' E 008°29'0 0.0
2015-May-19 00:16N 44°18' E 008°29'0 0.0
2015-May-18 23:31N 44°18' E 008°29'  

Dump ship's entire track history